createdAt,value
2023-05-06T00:02:17.495Z,2.80
2023-05-06T00:04:44.395Z,3.60
2023-05-06T00:07:11.698Z,3.20
2023-05-06T00:09:38.488Z,3.07
2023-05-06T00:12:05.587Z,2.70
2023-05-06T00:14:32.741Z,2.87
2023-05-06T00:16:59.502Z,2.70
2023-05-06T00:19:26.381Z,2.90
2023-05-06T00:21:53.554Z,2.40
2023-05-06T00:24:20.283Z,2.00
2023-05-06T00:26:47.041Z,2.10
2023-05-06T00:29:13.824Z,2.07
2023-05-06T00:31:41.188Z,2.20
2023-05-06T00:34:09.114Z,1.93
2023-05-06T00:36:37.220Z,2.20
2023-05-06T00:39:04.127Z,2.30
2023-05-06T00:41:32.658Z,2.70
2023-05-06T00:43:59.642Z,2.83
2023-05-06T00:46:26.954Z,2.50
2023-05-06T00:48:54.717Z,3.07
2023-05-06T00:51:23.197Z,2.10
2023-05-06T00:53:50.299Z,2.80
2023-05-06T00:56:20.567Z,2.40
2023-05-06T00:58:48.247Z,2.30
2023-05-06T01:01:15.716Z,2.43
2023-05-06T01:03:42.701Z,3.20
2023-05-06T01:06:09.577Z,3.20
2023-05-06T01:08:44.123Z,2.73
2023-05-06T01:11:21.587Z,2.47
2023-05-06T01:13:57.836Z,3.47
2023-05-06T01:16:29.604Z,2.57
2023-05-06T01:18:59.628Z,2.07
2023-05-06T01:21:34.567Z,2.70
2023-05-06T01:24:01.805Z,5.40
2023-05-06T01:26:28.615Z,2.60
2023-05-06T01:28:56.437Z,2.10
2023-05-06T01:31:36.800Z,1.80
2023-05-06T01:34:24.959Z,3.20
2023-05-06T01:37:22.061Z,2.67
2023-05-06T01:39:50.130Z,1.97
2023-05-06T01:42:17.932Z,2.00
2023-05-06T01:44:45.224Z,2.10
2023-05-06T01:47:12.813Z,2.07
2023-05-06T01:49:39.951Z,2.13
2023-05-06T01:52:07.445Z,2.00
2023-05-06T01:54:34.318Z,2.07
2023-05-06T01:57:02.267Z,2.40
2023-05-06T01:59:29.750Z,2.03
2023-05-06T02:01:56.901Z,2.00
2023-05-06T02:04:23.873Z,2.27
2023-05-06T02:06:50.921Z,1.83
2023-05-06T02:09:18.815Z,2.10
2023-05-06T02:11:51.829Z,1.60
2023-05-06T02:14:18.638Z,2.00
2023-05-06T02:16:45.548Z,2.50
2023-05-06T02:19:12.378Z,1.60
2023-05-06T02:21:39.147Z,1.97
2023-05-06T02:24:06.970Z,1.67
2023-05-06T02:26:34.355Z,1.60
2023-05-06T02:29:01.073Z,1.70
2023-05-06T02:31:27.846Z,2.10
2023-05-06T02:33:54.739Z,2.07
2023-05-06T02:36:21.874Z,2.10
2023-05-06T02:38:48.650Z,2.83
2023-05-06T02:41:15.599Z,2.80
2023-05-06T02:43:42.382Z,3.00
2023-05-06T02:46:09.147Z,3.13
2023-05-06T02:48:35.939Z,3.40
2023-05-06T02:51:05.389Z,3.53
2023-05-06T02:53:32.155Z,3.00
2023-05-06T02:55:58.997Z,4.23
2023-05-06T02:58:26.414Z,3.23
2023-05-06T03:00:54.318Z,3.17
2023-05-06T03:03:22.472Z,3.37
2023-05-06T03:05:49.342Z,3.40
2023-05-06T03:08:16.297Z,3.10
2023-05-06T03:10:43.115Z,3.00
2023-05-06T03:13:10.132Z,2.80
2023-05-06T03:15:37.187Z,3.20
2023-05-06T03:18:04.119Z,3.10
2023-05-06T03:20:31.054Z,3.50
2023-05-06T03:22:59.823Z,4.03
2023-05-06T03:25:26.593Z,3.83
2023-05-06T03:27:54.464Z,4.13
2023-05-06T03:30:23.023Z,3.57
2023-05-06T03:32:52.735Z,4.30
2023-05-06T03:35:26.517Z,4.70
2023-05-06T03:37:56.986Z,5.20
2023-05-06T03:40:26.840Z,7.07
2023-05-06T03:42:54.578Z,6.10
2023-05-06T03:45:22.750Z,4.50
2023-05-06T03:47:50.358Z,4.33
2023-05-06T03:50:19.226Z,4.20
2023-05-06T03:52:46.094Z,4.00
2023-05-06T03:55:13.022Z,4.10
2023-05-06T03:57:39.999Z,4.10
2023-05-06T04:00:07.853Z,4.03
2023-05-06T04:02:42.902Z,4.93
2023-05-06T04:05:14.399Z,5.47
2023-05-06T04:07:41.599Z,5.23
2023-05-06T04:10:08.970Z,6.50
2023-05-06T04:12:36.762Z,5.93
2023-05-06T04:15:04.809Z,6.10
2023-05-06T04:17:31.821Z,7.00
2023-05-06T04:19:58.637Z,5.77
2023-05-06T04:22:25.758Z,7.53
2023-05-06T04:24:53.509Z,6.60
2023-05-06T04:27:20.589Z,5.83
2023-05-06T04:29:47.767Z,6.07
2023-05-06T04:32:17.356Z,4.80
2023-05-06T04:34:47.254Z,4.10
2023-05-06T04:37:15.468Z,4.40
2023-05-06T04:39:47.099Z,4.03
2023-05-06T04:42:14.548Z,3.63
2023-05-06T04:44:48.968Z,3.63
2023-05-06T04:47:18.757Z,4.20
2023-05-06T04:49:48.778Z,3.40
2023-05-06T04:52:16.358Z,4.00
2023-05-06T04:54:45.451Z,4.83
2023-05-06T04:57:13.229Z,3.67
2023-05-06T04:59:42.801Z,4.20
2023-05-06T05:02:09.972Z,4.00
2023-05-06T05:04:38.627Z,4.57
2023-05-06T05:07:07.490Z,5.10
2023-05-06T05:09:35.673Z,5.23
2023-05-06T05:12:03.678Z,4.30
2023-05-06T05:14:35.091Z,5.17
2023-05-06T05:17:02.422Z,5.60
2023-05-06T05:19:29.353Z,5.40
2023-05-06T05:21:56.936Z,5.60
2023-05-06T05:24:25.297Z,5.80
2023-05-06T05:26:52.092Z,5.30
2023-05-06T05:29:19.040Z,5.07
2023-05-06T05:31:47.599Z,5.90
2023-05-06T05:34:14.813Z,5.07
2023-05-06T05:36:42.639Z,4.87
2023-05-06T05:39:11.919Z,4.40
2023-05-06T05:41:43.682Z,4.77
2023-05-06T05:44:10.797Z,4.50
2023-05-06T05:46:40.293Z,4.90
2023-05-06T05:49:07.345Z,3.80
2023-05-06T05:51:34.477Z,3.97
2023-05-06T05:54:04.562Z,4.50
2023-05-06T05:56:31.975Z,3.63
2023-05-06T05:58:59.231Z,4.33
2023-05-06T06:01:26.101Z,4.87
2023-05-06T06:03:54.944Z,4.53
2023-05-06T06:06:23.598Z,4.33
2023-05-06T06:08:50.729Z,5.03
2023-05-06T06:11:19.108Z,5.80
2023-05-06T06:13:46.003Z,6.77
2023-05-06T06:16:13.475Z,6.00
2023-05-06T06:18:40.319Z,4.67
2023-05-06T06:21:07.098Z,5.20
2023-05-06T06:23:35.157Z,5.93
2023-05-06T06:26:04.059Z,3.70
2023-05-06T06:28:32.878Z,2.90
2023-05-06T06:31:02.096Z,4.27
2023-05-06T06:33:29.207Z,4.67
2023-05-06T06:35:57.233Z,3.87
2023-05-06T06:38:24.044Z,4.43
2023-05-06T06:40:50.828Z,4.07
2023-05-06T06:43:19.870Z,3.60
2023-05-06T06:45:56.429Z,3.27
2023-05-06T06:48:23.511Z,3.87
2023-05-06T06:50:50.371Z,4.23
2023-05-06T06:53:18.268Z,4.00
2023-05-06T06:55:46.242Z,4.60
2023-05-06T06:58:13.396Z,3.63
2023-05-06T07:00:40.731Z,4.40
2023-05-06T07:03:07.627Z,3.90
2023-05-06T07:05:34.427Z,4.40
2023-05-06T07:08:01.187Z,4.30
2023-05-06T07:10:27.944Z,3.90
2023-05-06T07:12:55.105Z,3.63
2023-05-06T07:15:22.592Z,3.60
2023-05-06T07:17:49.500Z,4.07
2023-05-06T07:20:16.339Z,3.43
2023-05-06T07:22:43.704Z,3.70
2023-05-06T07:25:10.846Z,3.40
2023-05-06T07:27:37.996Z,3.87
2023-05-06T07:30:05.647Z,3.70
2023-05-06T07:32:32.808Z,4.17
2023-05-06T07:34:59.942Z,3.70
2023-05-06T07:37:27.001Z,3.83
2023-05-06T07:39:53.733Z,4.80
2023-05-06T07:42:20.535Z,3.90
2023-05-06T07:44:47.287Z,4.27
2023-05-06T07:47:25.886Z,3.50
2023-05-06T07:49:53.276Z,3.30
2023-05-06T07:52:20.030Z,3.93
2023-05-06T07:54:46.756Z,3.03
2023-05-06T07:57:14.523Z,3.97
2023-05-06T07:59:42.360Z,3.20
2023-05-06T08:02:09.470Z,3.17
2023-05-06T08:04:36.968Z,3.20
2023-05-06T08:07:03.829Z,2.83
2023-05-06T08:09:30.607Z,3.07
2023-05-06T08:11:58.392Z,2.90
2023-05-06T08:14:28.754Z,3.20
2023-05-06T08:16:55.652Z,2.90
2023-05-06T08:19:23.069Z,2.70
2023-05-06T08:21:50.596Z,6.73
2023-05-06T08:24:17.691Z,4.70
2023-05-06T08:26:44.549Z,3.47
2023-05-06T08:29:11.451Z,3.23
2023-05-06T08:31:38.242Z,2.57
2023-05-06T08:34:05.568Z,3.20
2023-05-06T08:36:32.396Z,2.50
2023-05-06T08:38:59.149Z,3.50
2023-05-06T08:41:29.089Z,2.73
2023-05-06T08:43:58.809Z,2.73
2023-05-06T08:46:27.425Z,2.40
2023-05-06T08:48:55.084Z,2.60
2023-05-06T08:51:29.435Z,3.17
2023-05-06T08:54:00.447Z,2.00
2023-05-06T08:56:31.157Z,2.27
2023-05-06T08:58:59.111Z,2.00
2023-05-06T09:01:30.216Z,1.83
2023-05-06T09:03:58.329Z,2.20
2023-05-06T09:06:25.789Z,2.47
2023-05-06T09:08:53.133Z,2.00
2023-05-06T09:11:24.950Z,1.90
2023-05-06T09:14:06.881Z,5.27
2023-05-06T09:16:33.698Z,1.50
2023-05-06T09:19:00.884Z,1.73
2023-05-06T09:21:34.645Z,2.00
2023-05-06T09:24:03.423Z,1.53
2023-05-06T09:26:31.906Z,1.43
2023-05-06T09:28:59.733Z,1.83
2023-05-06T09:31:27.576Z,1.70
2023-05-06T09:33:56.452Z,1.50
2023-05-06T09:36:25.786Z,1.67
2023-05-06T09:38:54.024Z,2.00
2023-05-06T09:41:22.791Z,1.70
2023-05-06T09:43:51.411Z,1.70
2023-05-06T09:46:18.828Z,1.53
2023-05-06T09:48:47.217Z,1.70
2023-05-06T09:51:14.134Z,1.70
2023-05-06T09:53:42.330Z,2.30
2023-05-06T09:56:09.414Z,1.70
2023-05-06T09:58:37.237Z,2.03
2023-05-06T10:01:05.881Z,1.70
2023-05-06T10:03:33.898Z,1.83
2023-05-06T10:06:02.477Z,1.60
2023-05-06T10:08:29.687Z,1.60
2023-05-06T10:10:57.043Z,1.40
2023-05-06T10:13:27.097Z,1.20
2023-05-06T10:15:55.185Z,1.70
2023-05-06T10:18:23.264Z,2.27
2023-05-06T10:20:51.562Z,1.20
2023-05-06T10:23:49.125Z,1.10
2023-05-06T10:26:19.867Z,1.00
2023-05-06T10:28:49.774Z,1.00
2023-05-06T10:31:16.884Z,1.23
2023-05-06T10:33:48.790Z,1.00
2023-05-06T10:36:20.533Z,1.03
2023-05-06T10:38:54.792Z,1.00
2023-05-06T10:41:22.775Z,1.00
2023-05-06T10:43:56.583Z,2.97
2023-05-06T10:46:28.771Z,1.00
2023-05-06T10:49:04.775Z,1.00
2023-05-06T10:51:36.618Z,1.07
2023-05-06T10:54:10.514Z,0.90
2023-05-06T10:56:47.871Z,1.10
2023-05-06T10:59:15.447Z,1.00
2023-05-06T11:01:43.834Z,1.43
2023-05-06T11:04:19.381Z,0.90
2023-05-06T11:06:51.160Z,1.20
2023-05-06T11:09:22.679Z,1.10
2023-05-06T11:11:58.406Z,1.07
2023-05-06T11:14:37.877Z,1.10
2023-05-06T11:17:06.738Z,1.40
2023-05-06T11:19:38.202Z,2.10
2023-05-06T11:22:06.982Z,4.90
2023-05-06T11:24:43.869Z,2.30
2023-05-06T11:27:11.357Z,1.17
2023-05-06T11:29:38.210Z,2.00
2023-05-06T11:32:25.063Z,1.03
2023-05-06T11:34:55.752Z,0.80
2023-05-06T11:37:29.734Z,0.87
2023-05-06T11:39:56.538Z,0.90
2023-05-06T11:42:28.898Z,1.27
2023-05-06T11:44:56.070Z,1.00
2023-05-06T11:47:23.651Z,1.20
2023-05-06T11:49:53.864Z,0.90
2023-05-06T11:52:21.017Z,0.90
2023-05-06T11:54:50.153Z,0.80
2023-05-06T11:57:17.395Z,1.10
2023-05-06T11:59:44.490Z,0.93
2023-05-06T12:02:14.173Z,0.83
2023-05-06T12:04:43.619Z,1.03
2023-05-06T12:07:12.340Z,0.80
2023-05-06T12:09:44.277Z,0.93
2023-05-06T12:12:12.294Z,0.83
2023-05-06T12:14:39.680Z,1.10
2023-05-06T12:17:06.503Z,0.90
2023-05-06T12:19:33.767Z,0.97
2023-05-06T12:22:21.291Z,0.70
2023-05-06T12:24:49.317Z,1.00
2023-05-06T12:27:32.913Z,1.00
2023-05-06T12:30:00.572Z,0.90
2023-05-06T12:32:27.477Z,0.97
2023-05-06T12:34:54.628Z,0.90
2023-05-06T12:37:27.419Z,0.80
2023-05-06T12:39:58.298Z,1.00
2023-05-06T12:42:26.062Z,1.00
2023-05-06T12:44:52.841Z,1.00
2023-05-06T12:47:26.794Z,1.00
2023-05-06T12:49:58.043Z,0.77
2023-05-06T12:52:27.497Z,1.10
2023-05-06T12:54:54.927Z,1.00
2023-05-06T12:57:22.750Z,0.90
2023-05-06T12:59:49.962Z,0.87
2023-05-06T13:02:16.883Z,0.80
2023-05-06T13:04:44.478Z,0.90
2023-05-06T13:07:11.926Z,0.90
2023-05-06T13:09:38.932Z,0.90
2023-05-06T13:12:06.735Z,1.00
2023-05-06T13:14:33.496Z,0.77
2023-05-06T13:17:01.398Z,0.60
2023-05-06T13:19:32.722Z,0.80
2023-05-06T13:22:01.173Z,1.00
2023-05-06T13:24:28.677Z,0.80
2023-05-06T13:26:56.975Z,1.10
2023-05-06T13:29:24.934Z,0.90
2023-05-06T13:31:52.002Z,0.97
2023-05-06T13:34:19.319Z,0.87
2023-05-06T13:36:47.750Z,0.90
2023-05-06T13:39:14.650Z,1.00
2023-05-06T13:41:43.832Z,0.80
2023-05-06T13:44:10.738Z,0.70
2023-05-06T13:46:37.596Z,0.90
2023-05-06T13:49:04.430Z,0.80
2023-05-06T13:51:33.523Z,0.83
2023-05-06T13:54:00.971Z,0.70
2023-05-06T13:56:27.767Z,0.90
2023-05-06T13:58:54.659Z,0.80
2023-05-06T14:01:22.077Z,0.77
2023-05-06T14:03:48.993Z,0.70
2023-05-06T14:06:15.819Z,0.70
2023-05-06T14:08:42.664Z,0.87
2023-05-06T14:11:12.348Z,1.10
2023-05-06T14:13:40.337Z,1.00
2023-05-06T14:16:07.757Z,1.03
2023-05-06T14:18:34.899Z,0.80
2023-05-06T14:21:01.740Z,1.03
2023-05-06T14:23:28.509Z,1.20
2023-05-06T14:25:55.353Z,0.80
2023-05-06T14:28:22.086Z,1.10
2023-05-06T14:30:51.245Z,0.80
2023-05-06T14:33:18.033Z,0.80
2023-05-06T14:35:46.247Z,0.80
2023-05-06T14:38:13.184Z,0.87
2023-05-06T14:40:39.995Z,0.80
2023-05-06T14:43:07.797Z,0.90
2023-05-06T14:45:35.003Z,1.00
2023-05-06T14:48:02.250Z,0.80
2023-05-06T14:50:30.089Z,0.73
2023-05-06T14:52:57.021Z,0.80
2023-05-06T14:55:23.812Z,1.20
2023-05-06T14:57:51.099Z,0.87
2023-05-06T15:00:18.249Z,0.80
2023-05-06T15:02:45.352Z,0.83
2023-05-06T15:05:13.339Z,0.70
2023-05-06T15:07:40.518Z,0.90
2023-05-06T15:10:07.964Z,0.90
2023-05-06T15:12:36.378Z,0.90
2023-05-06T15:15:05.087Z,0.77
2023-05-06T15:17:32.670Z,0.73
2023-05-06T15:19:59.617Z,1.00
2023-05-06T15:22:26.609Z,0.90
2023-05-06T15:24:53.487Z,0.70
2023-05-06T15:27:20.392Z,0.70
2023-05-06T15:29:47.127Z,0.90
2023-05-06T15:32:13.929Z,1.00
2023-05-06T15:34:40.777Z,0.80
2023-05-06T15:37:10.340Z,0.60
2023-05-06T15:39:39.869Z,0.80
2023-05-06T15:42:07.001Z,0.80
2023-05-06T15:44:34.156Z,0.90
2023-05-06T15:47:01.120Z,0.70
2023-05-06T15:52:00.848Z,0.70
2023-05-06T15:54:28.863Z,0.73
2023-05-06T15:56:56.581Z,0.70
2023-05-06T15:59:23.693Z,0.70
2023-05-06T16:02:25.252Z,0.80
2023-05-06T16:04:37.709Z,0.80
2023-05-06T16:07:04.779Z,0.93
2023-05-06T16:09:31.519Z,0.90
2023-05-06T16:11:58.364Z,0.70
2023-05-06T16:14:25.139Z,0.70
2023-05-06T16:16:51.977Z,0.80
2023-05-06T16:19:18.719Z,0.83
2023-05-06T16:21:45.640Z,0.80
2023-05-06T16:24:12.370Z,0.90
2023-05-06T16:26:39.115Z,0.80
2023-05-06T16:29:06.094Z,0.73
2023-05-06T16:31:34.115Z,0.70
2023-05-06T16:34:00.996Z,0.83
2023-05-06T16:36:28.534Z,0.70
2023-05-06T16:38:55.491Z,0.80
2023-05-06T16:41:22.224Z,0.80
2023-05-06T16:43:49.004Z,0.90
2023-05-06T16:46:15.774Z,0.77
2023-05-06T16:48:42.658Z,0.80
2023-05-06T16:51:10.533Z,0.70
2023-05-06T16:53:37.292Z,0.80
2023-05-06T16:56:04.259Z,0.90
2023-05-06T16:58:31.084Z,0.90
2023-05-06T17:00:57.991Z,0.80
2023-05-06T17:03:24.840Z,0.80
2023-05-06T17:05:51.782Z,0.70
2023-05-06T17:08:18.827Z,0.90
2023-05-06T17:10:46.102Z,0.80
2023-05-06T17:13:12.929Z,0.70
2023-05-06T17:15:39.866Z,0.70
2023-05-06T17:18:06.717Z,0.70
2023-05-06T17:20:38.017Z,0.60
2023-05-06T17:23:10.989Z,0.80
2023-05-06T17:25:37.711Z,0.90
2023-05-06T17:28:04.557Z,1.00
2023-05-06T17:30:31.307Z,0.77
2023-05-06T17:32:58.132Z,0.80
2023-05-06T17:35:25.408Z,0.87
2023-05-06T17:37:54.924Z,0.87
2023-05-06T17:40:21.805Z,1.20
2023-05-06T17:42:48.582Z,0.70
2023-05-06T17:45:15.777Z,0.80
2023-05-06T17:47:42.595Z,1.00
2023-05-06T17:50:10.280Z,0.90
2023-05-06T17:52:37.032Z,0.90
2023-05-06T17:55:15.616Z,1.00
2023-05-06T17:57:43.930Z,1.20
2023-05-06T18:00:11.518Z,0.70
2023-05-06T18:02:42.564Z,1.00
2023-05-06T18:05:09.934Z,0.90
2023-05-06T18:07:37.050Z,0.90
2023-05-06T18:10:04.112Z,1.00
2023-05-06T18:12:31.150Z,1.97
2023-05-06T18:14:58.420Z,1.30
2023-05-06T18:17:25.728Z,0.80
2023-05-06T18:19:53.063Z,1.00
2023-05-06T18:22:19.859Z,1.07
2023-05-06T18:24:46.670Z,1.30
2023-05-06T18:27:13.516Z,1.17
2023-05-06T18:29:41.275Z,1.10
2023-05-06T18:32:08.515Z,1.20
2023-05-06T18:34:35.680Z,1.57
2023-05-06T18:37:04.664Z,1.13
2023-05-06T18:39:31.419Z,0.80
2023-05-06T18:41:58.450Z,1.00
2023-05-06T18:44:26.927Z,1.20
2023-05-06T18:46:53.654Z,1.30
2023-05-06T18:49:20.401Z,1.67
2023-05-06T18:51:47.155Z,4.27
2023-05-06T18:54:15.594Z,7.83
2023-05-06T18:56:43.829Z,8.43
2023-05-06T18:59:11.684Z,6.77
2023-05-06T19:01:38.627Z,6.40
2023-05-06T19:04:06.327Z,6.47
2023-05-06T19:06:33.100Z,3.60
2023-05-06T19:09:00.064Z,3.07
2023-05-06T19:11:26.847Z,2.50
2023-05-06T19:13:54.027Z,1.37
2023-05-06T19:16:20.883Z,1.83
2023-05-06T19:18:47.864Z,1.67
2023-05-06T19:21:18.720Z,1.40
2023-05-06T19:23:45.668Z,1.40
2023-05-06T19:26:13.449Z,1.10
2023-05-06T19:28:41.149Z,1.17
2023-05-06T19:31:11.865Z,1.10
2023-05-06T19:33:39.520Z,1.20
2023-05-06T19:36:06.934Z,1.50
2023-05-06T19:38:34.480Z,2.20
2023-05-06T19:41:01.514Z,1.70
2023-05-06T19:43:28.957Z,1.23
2023-05-06T19:45:56.195Z,0.90
2023-05-06T19:48:23.778Z,1.43
2023-05-06T19:53:18.280Z,1.60
2023-05-06T19:55:45.038Z,1.67
2023-05-06T19:58:14.068Z,1.30
2023-05-06T20:00:41.015Z,1.53
2023-05-06T20:03:08.342Z,1.40
2023-05-06T20:05:35.503Z,1.23
2023-05-06T20:08:02.289Z,1.60
2023-05-06T20:10:29.736Z,1.53
2023-05-06T20:12:57.897Z,1.80
2023-05-06T20:15:26.566Z,2.03
2023-05-06T20:17:53.538Z,2.30
2023-05-06T20:20:20.488Z,1.77
2023-05-06T20:22:47.225Z,2.17
2023-05-06T20:25:18.810Z,2.50
2023-05-06T20:27:46.435Z,2.40
2023-05-06T20:30:13.296Z,1.73
2023-05-06T20:32:40.818Z,1.77
2023-05-06T20:35:08.465Z,2.10
2023-05-06T20:37:36.249Z,1.83
2023-05-06T20:40:04.917Z,1.60
2023-05-06T20:42:32.086Z,1.60
2023-05-06T20:44:59.226Z,1.73
2023-05-06T20:47:26.913Z,2.00
2023-05-06T20:49:54.216Z,1.40
2023-05-06T20:52:21.800Z,1.60
2023-05-06T20:54:49.022Z,2.00
2023-05-06T20:57:17.599Z,1.83
2023-05-06T20:59:44.442Z,1.50
2023-05-06T21:02:11.440Z,1.40
2023-05-06T21:04:38.400Z,1.80
2023-05-06T21:07:07.048Z,1.33
2023-05-06T21:09:33.787Z,1.37
2023-05-06T21:12:00.651Z,1.37
2023-05-06T21:14:27.557Z,2.40
2023-05-06T21:16:54.401Z,1.70
2023-05-06T21:19:21.218Z,1.77
2023-05-06T21:21:48.453Z,1.53
2023-05-06T21:24:15.428Z,1.47
2023-05-06T21:26:43.360Z,1.70
2023-05-06T21:29:10.568Z,1.40
2023-05-06T21:31:38.035Z,1.37
2023-05-06T21:34:07.664Z,1.30
2023-05-06T21:36:36.418Z,1.67
2023-05-06T21:39:12.088Z,1.47
2023-05-06T21:41:39.497Z,1.50
2023-05-06T21:44:08.318Z,1.40
2023-05-06T21:46:36.762Z,1.37
2023-05-06T21:49:04.301Z,1.40
2023-05-06T21:51:33.618Z,1.33
2023-05-06T21:54:00.871Z,1.17
2023-05-06T21:56:27.772Z,1.23
2023-05-06T21:58:58.068Z,1.60
2023-05-06T22:01:29.125Z,2.20
2023-05-06T22:03:56.183Z,2.63
2023-05-06T22:06:23.429Z,1.80
2023-05-06T22:08:50.638Z,1.40
2023-05-06T22:11:17.506Z,1.70
2023-05-06T22:13:44.227Z,1.87
2023-05-06T22:16:11.059Z,1.40
2023-05-06T22:18:41.225Z,1.10
2023-05-06T22:21:08.791Z,1.40
2023-05-06T22:23:35.722Z,1.30
2023-05-06T22:26:02.833Z,1.40
2023-05-06T22:28:29.664Z,1.40
2023-05-06T22:30:56.613Z,1.20
2023-05-06T22:33:23.405Z,1.60
2023-05-06T22:35:50.260Z,1.47
2023-05-06T22:38:17.240Z,1.63
2023-05-06T22:40:43.974Z,1.20
2023-05-06T22:43:10.767Z,1.50
2023-05-06T22:45:37.728Z,1.43
2023-05-06T22:48:05.141Z,1.73
2023-05-06T22:50:31.987Z,1.20
2023-05-06T22:53:01.258Z,1.53
2023-05-06T22:55:31.929Z,1.53
2023-05-06T22:57:58.645Z,1.50
2023-05-06T23:00:25.371Z,1.50
2023-05-06T23:02:52.565Z,1.27
2023-05-06T23:05:19.711Z,1.50
2023-05-06T23:07:46.418Z,1.70
2023-05-06T23:10:13.266Z,1.40
2023-05-06T23:12:41.402Z,1.40
2023-05-06T23:15:08.930Z,1.47
2023-05-06T23:17:35.782Z,1.27
2023-05-06T23:20:03.818Z,1.17
2023-05-06T23:22:30.941Z,1.70
2023-05-06T23:24:57.679Z,1.60
2023-05-06T23:27:24.410Z,1.77
2023-05-06T23:29:51.379Z,2.00
2023-05-06T23:32:18.250Z,2.00
2023-05-06T23:34:45.052Z,1.97
2023-05-06T23:37:12.065Z,1.43
2023-05-06T23:39:39.001Z,1.70
2023-05-06T23:42:05.843Z,2.53
2023-05-06T23:44:32.710Z,2.00
2023-05-06T23:46:59.530Z,2.23
2023-05-06T23:49:26.302Z,1.40
2023-05-06T23:51:53.132Z,1.53
2023-05-06T23:54:20.862Z,1.57
2023-05-06T23:56:47.700Z,1.90
2023-05-06T23:59:14.415Z,1.80
